createdAt,value
2023-03-29T00:01:35.546Z,21912.97
2023-03-29T00:04:04.772Z,20436.94
2023-03-29T00:06:33.357Z,18226.78
2023-03-29T00:09:01.912Z,16960.97
2023-03-29T00:11:30.042Z,15266.78
2023-03-29T00:13:58.193Z,12981.25
2023-03-29T00:16:27.990Z,10615.91
2023-03-29T00:18:56.040Z,7612.81
2023-03-29T00:21:25.006Z,4718.03
2023-03-29T00:23:53.454Z,4005.28
2023-03-29T00:26:21.858Z,3132.66
2023-03-29T00:28:52.876Z,1781.78
2023-03-29T00:31:21.202Z,-13.44
2023-03-29T00:33:51.091Z,-1297.72
2023-03-29T00:36:19.157Z,-2749.75
2023-03-29T00:38:47.231Z,-3905.81
2023-03-29T00:41:15.784Z,-5316.22
2023-03-29T00:43:55.797Z,-6435.84
2023-03-29T00:46:24.546Z,-8549.75
2023-03-29T00:48:58.362Z,-10539.72
2023-03-29T00:51:29.404Z,-11188.37
2023-03-29T00:54:00.103Z,-10213.72
2023-03-29T00:56:34.896Z,-9563.66
2023-03-29T00:59:17.790Z,-8587.56
2023-03-29T01:01:54.464Z,-9238.75
2023-03-29T01:04:31.456Z,-9888.56
2023-03-29T01:07:32.467Z,-10213.72
2023-03-29T01:10:09.063Z,-8911.78
2023-03-29T01:12:52.797Z,-10214.88
2023-03-29T01:15:30.534Z,-10540.16
2023-03-29T01:18:11.837Z,-10865.28
2023-03-29T01:21:14.761Z,-9237.53
2023-03-29T01:24:07.929Z,-7610.72
2023-03-29T01:30:17.591Z,-4354.03
2023-03-29T01:32:57.175Z,-5331.28
2023-03-29T01:35:32.822Z,-5331.44
2023-03-29T01:38:09.029Z,-5657.34
2023-03-29T01:40:38.436Z,-5657.16
2023-03-29T01:43:19.088Z,-5982.41
2023-03-29T01:45:56.853Z,-5005.66
2023-03-29T01:48:46.714Z,-4027.88
2023-03-29T01:51:21.297Z,-2398.28
2023-03-29T01:53:56.399Z,-2072.19
2023-03-29T01:56:30.458Z,-1201.16
2023-03-29T01:59:02.290Z,73.22
2023-03-29T02:01:38.457Z,175.34
2023-03-29T02:04:13.225Z,302.78
2023-03-29T02:06:42.994Z,1613.22
2023-03-29T02:09:11.699Z,1837.84
2023-03-29T02:11:47.826Z,1783.50
2023-03-29T02:14:17.121Z,1705.16
2023-03-29T02:16:46.955Z,1164.63
2023-03-29T02:19:15.290Z,583.34
2023-03-29T02:21:49.192Z,715.53
2023-03-29T02:24:21.965Z,583.25
2023-03-29T02:26:51.462Z,310.28
2023-03-29T02:29:19.550Z,-1093.81
2023-03-29T02:31:56.412Z,-2377.84
2023-03-29T02:34:30.430Z,-3050.28
2023-03-29T02:37:01.177Z,-3376.22
2023-03-29T02:39:32.342Z,-4028.09
2023-03-29T02:42:00.898Z,-4679.47
2023-03-29T02:44:34.146Z,-4354.06
2023-03-29T02:47:09.298Z,-5005.19
2023-03-29T02:49:37.282Z,-5657.38
2023-03-29T02:52:10.041Z,-6308.56
2023-03-29T02:54:43.132Z,-6633.88
2023-03-29T02:57:12.344Z,-7285.03
2023-03-29T02:59:43.781Z,-7936.91
2023-03-29T03:02:13.656Z,-8587.13
2023-03-29T03:04:43.300Z,-9890.44
2023-03-29T03:07:11.958Z,-11515.03
2023-03-29T03:09:40.234Z,-11841.00
2023-03-29T03:12:09.544Z,-12166.19
2023-03-29T03:14:38.114Z,-11841.38
2023-03-29T03:17:06.338Z,-11840.09
2023-03-29T03:19:36.336Z,-11839.28
2023-03-29T03:22:06.092Z,-11516.47
2023-03-29T03:24:34.590Z,-11841.50
2023-03-29T03:27:02.684Z,-12492.50
2023-03-29T03:29:30.682Z,-12817.44
2023-03-29T03:31:58.589Z,-13792.34
2023-03-29T03:34:27.690Z,-14116.84
2023-03-29T03:36:57.081Z,-14768.03
2023-03-29T03:39:26.469Z,-15092.00
2023-03-29T03:41:54.453Z,-15093.31
2023-03-29T03:44:22.526Z,-15415.81
2023-03-29T03:46:50.994Z,-15417.25
2023-03-29T03:49:19.265Z,-15418.41
2023-03-29T03:51:47.194Z,-16068.03
2023-03-29T03:54:16.466Z,-16717.09
2023-03-29T03:56:44.552Z,-17041.69
2023-03-29T03:59:12.449Z,-17041.09
2023-03-29T04:01:43.444Z,-18667.94
2023-03-29T04:04:12.155Z,-18992.78
2023-03-29T04:06:43.584Z,-19641.28
2023-03-29T04:09:11.760Z,-19967.38
2023-03-29T04:11:41.435Z,-19966.38
2023-03-29T04:14:09.939Z,-19968.50
2023-03-29T04:16:37.936Z,-19968.78
2023-03-29T04:19:05.985Z,-19966.53
2023-03-29T04:21:38.944Z,-19967.66
2023-03-29T04:24:07.737Z,-19969.63
2023-03-29T04:26:36.019Z,-19966.53
2023-03-29T04:29:05.848Z,-19971.44
2023-03-29T04:31:34.836Z,-19970.75
2023-03-29T04:34:03.016Z,-19971.03
2023-03-29T04:36:31.998Z,-19970.47
2023-03-29T04:39:01.794Z,-19971.16
2023-03-29T04:41:30.095Z,-19968.91
2023-03-29T04:43:58.252Z,-19969.34
2023-03-29T04:46:27.766Z,-19970.47
2023-03-29T04:48:55.745Z,-19970.47
2023-03-29T04:51:24.492Z,-19969.91
2023-03-29T04:53:54.020Z,-19971.59
2023-03-29T04:56:23.128Z,-19972.16
2023-03-29T04:58:52.082Z,-19968.50
2023-03-29T05:01:19.997Z,-19971.16
2023-03-29T05:03:55.284Z,-19973.28
2023-03-29T05:06:32.033Z,-19972.59
2023-03-29T05:09:04.882Z,-19971.59
2023-03-29T05:11:33.976Z,-19974.41
2023-03-29T05:14:21.170Z,-19975.25
2023-03-29T05:16:51.239Z,-19975.97
2023-03-29T05:19:26.861Z,-19975.09
2023-03-29T05:21:58.422Z,-19975.09
2023-03-29T05:24:26.496Z,-19975.81
2023-03-29T05:26:54.489Z,-19974.97
2023-03-29T05:29:23.787Z,-19972.38
2023-03-29T05:31:53.512Z,-19647.38
2023-03-29T05:34:23.127Z,-18674.72
2023-03-29T05:36:51.768Z,-17698.69
2023-03-29T05:39:20.182Z,-16397.72
2023-03-29T05:41:50.704Z,-14772.94
2023-03-29T05:44:22.035Z,-12498.22
2023-03-29T05:46:51.119Z,-10870.91
2023-03-29T05:49:20.757Z,-8266.03
2023-03-29T05:51:51.999Z,-5659.22
2023-03-29T05:54:20.206Z,-3702.78
2023-03-29T05:56:48.637Z,-766.41
2023-03-29T05:59:17.582Z,-11520.97
2023-03-29T06:01:47.014Z,-8265.22
2023-03-29T06:04:17.606Z,-4680.94
2023-03-29T06:06:45.638Z,-1092.56
2023-03-29T06:09:15.844Z,2498.78
2023-03-29T06:11:45.058Z,6096.34
2023-03-29T06:14:13.633Z,11662.06
2023-03-29T06:16:42.846Z,16807.16
2023-03-29T06:19:14.946Z,21699.38
2023-03-29T06:21:42.953Z,25890.19
2023-03-29T06:24:15.705Z,30890.19
2023-03-29T06:26:44.108Z,36730.97
2023-03-29T06:29:18.238Z,42311.28
2023-03-29T06:31:46.376Z,46238.31
2023-03-29T06:34:14.879Z,50136.50
2023-03-29T06:36:43.841Z,53711.19
2023-03-29T06:39:12.381Z,57682.41
2023-03-29T06:41:41.880Z,60742.69
2023-03-29T06:44:10.325Z,64346.22
2023-03-29T06:46:38.517Z,68249.94
2023-03-29T06:49:07.107Z,73467.97
2023-03-29T06:51:35.476Z,77236.44
2023-03-29T06:54:04.260Z,80435.13
2023-03-29T06:56:34.277Z,84424.84
2023-03-29T06:59:03.612Z,87147.66
2023-03-29T07:01:33.030Z,88928.16
2023-03-29T07:04:08.193Z,91561.47
2023-03-29T07:06:39.098Z,95025.47
2023-03-29T07:09:09.356Z,97207.16
2023-03-29T07:11:38.012Z,98780.72
2023-03-29T07:14:08.098Z,100300.47
2023-03-29T07:16:37.513Z,101504.97
2023-03-29T07:19:05.985Z,102462.22
2023-03-29T07:21:37.769Z,103063.56
2023-03-29T07:24:06.957Z,102703.72
2023-03-29T07:26:35.128Z,101301.81
2023-03-29T07:29:03.121Z,99379.81
2023-03-29T07:31:35.060Z,97557.88
2023-03-29T07:34:06.601Z,95316.00
2023-03-29T07:36:34.739Z,92162.03
2023-03-29T07:39:03.668Z,88735.09
2023-03-29T07:41:31.724Z,84639.50
2023-03-29T07:44:04.951Z,80201.50
2023-03-29T07:46:35.678Z,75629.31
2023-03-29T07:49:04.750Z,70500.09
2023-03-29T07:51:33.621Z,64945.13
2023-03-29T07:54:01.699Z,59501.31
2023-03-29T07:56:32.563Z,52812.34
2023-03-29T07:59:02.168Z,46480.94
2023-03-29T08:01:30.072Z,38254.88
2023-03-29T08:04:01.878Z,29625.97
2023-03-29T08:06:29.874Z,21572.88
2023-03-29T08:08:58.387Z,14509.53
2023-03-29T08:11:26.736Z,7828.41
2023-03-29T08:13:55.003Z,1531.31
2023-03-29T08:16:22.979Z,-5667.44
2023-03-29T08:18:51.273Z,-12851.78
2023-03-29T08:21:20.671Z,-18390.72
2023-03-29T08:23:51.141Z,-20025.59
2023-03-29T08:26:19.484Z,-20029.81
2023-03-29T08:28:47.642Z,-20033.06
2023-03-29T08:31:16.137Z,-20035.28
2023-03-29T08:33:44.518Z,-20035.00
2023-03-29T08:36:13.124Z,-20037.13
2023-03-29T08:38:42.607Z,-20042.19
2023-03-29T08:41:27.515Z,-20053.56
2023-03-29T08:44:09.708Z,-20069.13
2023-03-29T08:46:45.334Z,-20073.34
2023-03-29T08:49:16.803Z,-20078.66
2023-03-29T08:51:52.347Z,-20085.41
2023-03-29T08:54:29.540Z,-20088.91
2023-03-29T08:57:06.593Z,-20090.44
2023-03-29T08:59:35.882Z,-20090.16
2023-03-29T09:02:11.516Z,-20082.31
2023-03-29T09:04:42.565Z,-20081.47
2023-03-29T09:07:11.051Z,-20074.31
2023-03-29T09:09:42.219Z,-20079.50
2023-03-29T09:12:29.233Z,-20080.91
2023-03-29T09:15:08.524Z,-20079.38
2023-03-29T09:17:56.396Z,-20090.59
2023-03-29T09:20:51.255Z,-20095.50
2023-03-29T09:24:15.056Z,-20093.25
2023-03-29T09:26:55.749Z,-20093.25
2023-03-29T09:29:43.247Z,-20099.44
2023-03-29T09:32:20.781Z,-20102.09
2023-03-29T09:35:02.442Z,-20100.81
2023-03-29T09:37:34.972Z,-20100.25
2023-03-29T09:40:06.009Z,-20111.47
2023-03-29T09:42:35.864Z,-20113.16
2023-03-29T09:45:08.554Z,-20106.72
2023-03-29T09:47:41.996Z,-20099.69
2023-03-29T09:50:27.322Z,-20105.31
2023-03-29T09:52:59.049Z,-20106.72
2023-03-29T09:55:29.743Z,-20103.78
2023-03-29T09:58:02.901Z,-20102.22
2023-03-29T10:00:30.911Z,-20102.09
2023-03-29T10:03:00.631Z,-20100.25
2023-03-29T10:05:38.692Z,-20103.78
2023-03-29T10:08:19.811Z,-20104.47
2023-03-29T10:10:49.058Z,-20114.84
2023-03-29T10:13:23.299Z,-20113.16
2023-03-29T10:16:05.501Z,-20117.91
2023-03-29T10:18:34.811Z,-20118.47
2023-03-29T10:21:09.495Z,-20111.47
2023-03-29T10:23:38.969Z,-20112.03
2023-03-29T10:26:12.129Z,-20115.13
2023-03-29T10:28:41.719Z,-20122.41
2023-03-29T10:31:20.038Z,-20117.63
2023-03-29T10:33:53.653Z,-20116.38
2023-03-29T10:36:23.952Z,-20129.81
2023-03-29T10:38:52.766Z,-20137.09
2023-03-29T10:41:23.309Z,-20148.56
2023-03-29T10:43:53.181Z,-20157.94
2023-03-29T10:46:24.148Z,-20158.50
2023-03-29T10:48:57.551Z,-20185.06
2023-03-29T10:51:30.388Z,-20188.00
2023-03-29T10:53:58.817Z,-20194.84
2023-03-29T10:56:41.415Z,-20170.13
2023-03-29T10:59:33.247Z,-20207.28
2023-03-29T11:02:35.403Z,-20223.75
2023-03-29T11:05:21.591Z,-20199.59
2023-03-29T11:08:04.803Z,-20197.91
2023-03-29T11:10:42.481Z,-20202.53
2023-03-29T11:13:21.120Z,-20205.47
2023-03-29T11:16:04.872Z,-20231.56
2023-03-29T11:19:02.877Z,-20225.00
2023-03-29T11:21:40.655Z,-20214.25
2023-03-29T11:24:26.426Z,-20197.91
2023-03-29T11:27:05.666Z,-20190.94
2023-03-29T11:29:39.767Z,-20183.13
2023-03-29T11:32:15.477Z,-20190.38
2023-03-29T11:34:57.488Z,-20198.63
2023-03-29T11:37:33.531Z,-20195.97
2023-03-29T11:40:17.545Z,-20207.00
2023-03-29T11:42:54.295Z,-20197.06
2023-03-29T11:45:31.376Z,-20195.41
2023-03-29T11:48:04.102Z,-20216.63
2023-03-29T11:50:42.115Z,-20216.91
2023-03-29T11:53:14.692Z,-20208.09
2023-03-29T11:55:44.692Z,-20226.38
2023-03-29T11:58:18.716Z,-20232.38
2023-03-29T12:00:53.500Z,-20231.97
2023-03-29T12:03:37.165Z,-20237.00
2023-03-29T12:06:11.982Z,-20235.31
2023-03-29T12:08:47.716Z,-20237.69
2023-03-29T12:11:24.082Z,-20243.69
2023-03-29T12:13:56.393Z,-20246.75
2023-03-29T12:16:34.248Z,-20253.72
2023-03-29T12:19:07.967Z,-20272.94
2023-03-29T12:21:37.711Z,-20276.84
2023-03-29T12:24:06.216Z,-20290.47
2023-03-29T12:26:54.110Z,-20308.56
2023-03-29T12:29:38.087Z,-20298.81
2023-03-29T12:32:23.048Z,-20282.41
2023-03-29T12:35:07.557Z,-20282.69
2023-03-29T12:37:47.029Z,-20272.81
2023-03-29T12:40:17.712Z,-20278.66
2023-03-29T12:42:48.181Z,-20267.91
2023-03-29T12:45:23.306Z,-20267.22
2023-03-29T12:47:53.080Z,-20251.22
2023-03-29T12:50:29.000Z,-20240.63
2023-03-29T12:53:06.354Z,-20233.78
2023-03-29T12:55:49.126Z,-20235.59
2023-03-29T12:58:41.932Z,-20227.78
2023-03-29T13:01:11.953Z,-20213.28
2023-03-29T13:03:49.849Z,-20213.69
2023-03-29T13:06:33.733Z,-20221.94
2023-03-29T13:09:05.301Z,-20219.00
2023-03-29T13:11:35.877Z,-20226.66
2023-03-29T13:14:21.127Z,-20227.78
2023-03-29T13:16:49.647Z,-20218.59
2023-03-29T13:19:33.081Z,-20217.59
2023-03-29T13:22:25.378Z,-20214.94
2023-03-29T13:25:18.522Z,-20218.31
2023-03-29T13:27:53.516Z,-20220.81
2023-03-29T13:30:45.529Z,-20229.59
2023-03-29T13:33:42.596Z,-20222.75
2023-03-29T13:36:41.840Z,-20223.31
2023-03-29T13:39:34.614Z,-20227.22
2023-03-29T13:42:21.660Z,-20229.75
2023-03-29T13:44:50.641Z,-20238.25
2023-03-29T13:47:48.946Z,-20238.66
2023-03-29T13:50:36.394Z,-20242.16
2023-03-29T13:53:11.824Z,-20247.72
2023-03-29T13:55:49.633Z,-20244.94
2023-03-29T13:58:33.249Z,-20243.41
2023-03-29T14:01:09.939Z,-20256.63
2023-03-29T14:03:46.035Z,-20270.16
2023-03-29T14:06:21.200Z,-20285.75
2023-03-29T14:08:51.043Z,-20286.56
2023-03-29T14:11:26.047Z,-20281.28
2023-03-29T14:13:54.984Z,-20265.13
2023-03-29T14:16:23.535Z,-20284.06
2023-03-29T14:18:52.831Z,-20272.53
2023-03-29T14:21:29.284Z,-20268.06
2023-03-29T14:24:02.788Z,-20265.56
2023-03-29T14:26:36.376Z,-20248.28
2023-03-29T14:29:04.545Z,-20240.75
2023-03-29T14:31:35.082Z,-20231.00
2023-03-29T14:34:05.157Z,-20235.59
2023-03-29T14:36:34.409Z,-20227.22
2023-03-29T14:39:05.621Z,-20224.72
2023-03-29T14:41:37.866Z,-20228.75
2023-03-29T14:44:07.804Z,-20218.16
2023-03-29T14:46:36.819Z,-20227.22
2023-03-29T14:49:16.367Z,-20229.47
2023-03-29T14:51:45.214Z,-20220.81
2023-03-29T14:54:20.953Z,-20225.13
2023-03-29T14:56:52.486Z,-20235.47
2023-03-29T14:59:29.746Z,-20239.78
2023-03-29T15:01:57.771Z,-20238.53
2023-03-29T15:04:34.192Z,-20236.28
2023-03-29T15:07:05.647Z,-20238.25
2023-03-29T15:09:38.784Z,-20240.34
2023-03-29T15:12:08.449Z,-20246.75
2023-03-29T15:14:38.674Z,-20247.44
2023-03-29T15:17:20.943Z,-20241.16
2023-03-29T15:19:52.154Z,-20229.19
2023-03-29T15:22:22.369Z,-20228.91
2023-03-29T15:24:50.837Z,-20226.25
2023-03-29T15:27:21.149Z,-20224.44
2023-03-29T15:29:49.167Z,-20217.75
2023-03-29T15:32:24.809Z,-20217.75
2023-03-29T15:34:59.684Z,-20213.41
2023-03-29T15:37:28.418Z,-20215.38
2023-03-29T15:39:56.731Z,-20209.91
2023-03-29T15:42:27.188Z,-20208.53
2023-03-29T15:44:56.739Z,-20204.19
2023-03-29T15:47:25.143Z,-20197.91
2023-03-29T15:49:53.177Z,-20199.72
2023-03-29T15:52:21.420Z,-20197.91
2023-03-29T15:54:50.797Z,-20200.44
2023-03-29T15:57:19.510Z,-20202.09
2023-03-29T15:59:48.923Z,-20196.81
2023-03-29T16:02:21.828Z,-20192.63
2023-03-29T16:04:51.136Z,-20188.56
2023-03-29T16:07:20.913Z,-20190.38
2023-03-29T16:09:50.737Z,-20186.88
2023-03-29T16:12:18.721Z,-20184.22
2023-03-29T16:14:51.077Z,-20183.94
2023-03-29T16:17:19.204Z,-20181.44
2023-03-29T16:19:49.231Z,-20182.13
2023-03-29T16:22:17.279Z,-20178.09
2023-03-29T16:24:45.212Z,-20176.97
2023-03-29T16:27:13.271Z,-20172.91
2023-03-29T16:29:41.289Z,-20173.47
2023-03-29T16:32:11.345Z,-20173.19
2023-03-29T16:34:41.417Z,-20169.84
2023-03-29T16:37:09.464Z,-20170.94
2023-03-29T16:39:40.188Z,-20167.03
2023-03-29T16:42:08.374Z,-20167.47
2023-03-29T16:44:39.421Z,-20164.81
2023-03-29T16:47:09.867Z,-20158.94
2023-03-29T16:49:40.261Z,-20156.41
2023-03-29T16:52:08.853Z,-20150.25
2023-03-29T16:54:37.216Z,-20144.66
2023-03-29T16:57:07.201Z,-20135.84
2023-03-29T16:59:35.547Z,-20133.03
2023-03-29T17:02:03.537Z,-20127.16
2023-03-29T17:04:32.035Z,-20125.75
2023-03-29T17:07:01.601Z,-20122.41
2023-03-29T17:09:32.846Z,-20118.47
2023-03-29T17:12:07.152Z,-20119.31
2023-03-29T17:14:36.257Z,-20118.19
2023-03-29T17:17:05.241Z,-20115.69
2023-03-29T17:19:33.349Z,-20115.13
2023-03-29T17:22:02.729Z,-20115.53
2023-03-29T17:24:31.019Z,-18148.88
2023-03-29T17:27:00.000Z,-15200.19
2023-03-29T17:29:37.837Z,-11921.56
2023-03-29T17:32:06.803Z,-5352.94
2023-03-29T17:34:40.964Z,2215.13
2023-03-29T17:37:12.232Z,8480.66
2023-03-29T17:39:43.230Z,13765.94
2023-03-29T17:42:13.900Z,19060.31
2023-03-29T17:44:45.939Z,24694.66
2023-03-29T17:47:24.957Z,32997.22
2023-03-29T17:50:24.016Z,44987.22
2023-03-29T17:52:56.515Z,54656.00
2023-03-29T17:55:26.993Z,63037.56
2023-03-29T17:58:01.104Z,71326.84
2023-03-29T18:00:36.203Z,81604.91
2023-03-29T18:03:04.801Z,90803.84
2023-03-29T18:05:39.964Z,88523.53
2023-03-29T18:08:09.893Z,92814.81
2023-03-29T18:10:39.992Z,99274.44
2023-03-29T18:13:11.278Z,105275.75
2023-03-29T18:15:39.569Z,110670.19
2023-03-29T18:18:07.887Z,116045.53
2023-03-29T18:20:58.672Z,121574.66
2023-03-29T18:23:28.080Z,124764.25
2023-03-29T18:26:00.243Z,127122.66
2023-03-29T18:28:28.403Z,131374.59
2023-03-29T18:30:56.758Z,134832.31
2023-03-29T18:33:25.524Z,137479.31
2023-03-29T18:35:53.625Z,141899.63
2023-03-29T18:38:23.230Z,144068.66
2023-03-29T18:41:04.509Z,146571.47
2023-03-29T18:43:35.353Z,148802.63
2023-03-29T18:46:03.557Z,150571.56
2023-03-29T18:48:38.694Z,151650.19
2023-03-29T18:51:07.967Z,151676.13
2023-03-29T18:53:49.393Z,151659.25
2023-03-29T18:56:23.016Z,151678.72
2023-03-29T18:58:51.551Z,151681.31
2023-03-29T19:01:21.154Z,151664.44
2023-03-29T19:03:52.384Z,151668.34
2023-03-29T19:06:20.668Z,151682.59
2023-03-29T19:08:48.774Z,151685.19
2023-03-29T19:11:18.945Z,151683.91
2023-03-29T19:13:50.700Z,151680.00
2023-03-29T19:16:19.216Z,151661.84
2023-03-29T19:18:47.702Z,151677.41
2023-03-29T19:21:15.739Z,151680.00
2023-03-29T19:23:43.798Z,151682.59
2023-03-29T19:26:12.120Z,151677.41
2023-03-29T19:28:42.555Z,151664.44
2023-03-29T19:31:10.775Z,151655.38
2023-03-29T19:33:38.817Z,151663.16
2023-03-29T19:36:07.593Z,151667.03
2023-03-29T19:38:37.377Z,151678.72
2023-03-29T19:41:08.436Z,151668.34
2023-03-29T19:43:37.312Z,151661.84
2023-03-29T19:46:11.903Z,151677.41
2023-03-29T19:48:43.226Z,151664.44
2023-03-29T19:51:12.709Z,151646.28
2023-03-29T19:53:41.843Z,151670.94
2023-03-29T19:56:13.189Z,151672.22
2023-03-29T19:58:41.587Z,151678.72
2023-03-29T20:01:10.899Z,151659.25
2023-03-29T20:03:40.443Z,151682.59
2023-03-29T20:06:11.068Z,151676.13
2023-03-29T20:08:40.670Z,151655.38
2023-03-29T20:11:19.928Z,151661.84
2023-03-29T20:13:47.944Z,151661.84
2023-03-29T20:16:24.343Z,151656.66
2023-03-29T20:18:54.081Z,151630.72
2023-03-29T20:21:35.501Z,151660.56
2023-03-29T20:24:04.088Z,151659.25
2023-03-29T20:26:32.549Z,151651.47
2023-03-29T20:29:00.576Z,151646.28
2023-03-29T20:31:39.715Z,151629.44
2023-03-29T20:34:08.241Z,151620.34
2023-03-29T20:36:40.408Z,151613.88
2023-03-29T20:39:09.025Z,151635.88
2023-03-29T20:41:38.433Z,151651.47
2023-03-29T20:44:06.779Z,151625.53
2023-03-29T20:47:12.857Z,151594.44
2023-03-29T20:49:42.238Z,151645.00
2023-03-29T20:52:17.501Z,151647.59
2023-03-29T20:54:46.522Z,151617.75
2023-03-29T20:57:16.404Z,151645.00
2023-03-29T20:59:45.038Z,151641.09
2023-03-29T21:02:17.356Z,151629.44
2023-03-29T21:04:49.834Z,151613.88
2023-03-29T21:07:18.437Z,151612.56
2023-03-29T21:09:47.258Z,151604.78
2023-03-29T21:12:18.417Z,151602.22
2023-03-29T21:14:49.489Z,151603.50
2023-03-29T21:17:18.780Z,151609.97
2023-03-29T21:19:46.833Z,151620.34
2023-03-29T21:22:15.774Z,151615.16
2023-03-29T21:24:43.661Z,151608.69
2023-03-29T21:27:14.128Z,151616.47
2023-03-29T21:29:42.310Z,151598.31
2023-03-29T21:32:10.893Z,151589.25
2023-03-29T21:34:40.606Z,151589.25
2023-03-29T21:37:09.337Z,151573.72
2023-03-29T21:39:37.370Z,151595.72
2023-03-29T21:42:06.165Z,151586.66
2023-03-29T21:44:34.549Z,151594.44
2023-03-29T21:47:02.855Z,151602.22
2023-03-29T21:49:31.794Z,151617.75
2023-03-29T21:52:01.221Z,151637.22
2023-03-29T21:54:30.727Z,151638.50
2023-03-29T21:56:58.836Z,151630.72
2023-03-29T21:59:27.988Z,151637.22
2023-03-29T22:02:08.329Z,151642.41
2023-03-29T22:04:40.330Z,151642.41
2023-03-29T22:07:22.943Z,151668.34
2023-03-29T22:10:04.544Z,151664.44
2023-03-29T22:12:34.479Z,151668.34
2023-03-29T22:15:02.837Z,151657.97
2023-03-29T22:17:30.779Z,151646.28
2023-03-29T22:20:02.738Z,151648.88
2023-03-29T22:22:35.067Z,151672.22
2023-03-29T22:25:07.716Z,151655.38
2023-03-29T22:27:37.595Z,151685.19
2023-03-29T22:30:07.101Z,151695.53
2023-03-29T22:32:35.559Z,151695.53
2023-03-29T22:35:06.437Z,151712.38
2023-03-29T22:37:41.730Z,151696.81
2023-03-29T22:40:11.144Z,151721.47
2023-03-29T22:42:39.214Z,151733.13
2023-03-29T22:45:09.001Z,151734.44
2023-03-29T22:47:37.199Z,151738.31
2023-03-29T22:50:05.862Z,151740.91
2023-03-29T22:52:33.787Z,151739.63
2023-03-29T22:55:03.466Z,151762.91
2023-03-29T22:57:31.548Z,151761.63
2023-03-29T22:59:59.409Z,151765.50
2023-03-29T23:02:27.320Z,151773.31
2023-03-29T23:04:55.564Z,151757.72
2023-03-29T23:07:29.434Z,151724.06
2023-03-29T23:09:57.675Z,151746.06
2023-03-29T23:12:27.271Z,151743.50
2023-03-29T23:14:55.789Z,151737.03
2023-03-29T23:17:25.837Z,151717.56
2023-03-29T23:19:53.814Z,151760.31
2023-03-29T23:22:21.755Z,151774.59
2023-03-29T23:24:49.749Z,151775.88
2023-03-29T23:27:18.472Z,151762.91
2023-03-29T23:29:48.068Z,151783.69
2023-03-29T23:32:16.190Z,151791.47
2023-03-29T23:34:44.603Z,151796.66
2023-03-29T23:37:12.575Z,151783.69
2023-03-29T23:39:40.622Z,151774.59
2023-03-29T23:42:08.490Z,151772.00
2023-03-29T23:44:36.489Z,151794.06
2023-03-29T23:47:06.215Z,151774.59
2023-03-29T23:49:34.294Z,151814.75
2023-03-29T23:52:02.618Z,151810.88
2023-03-29T23:54:31.587Z,151829.03
2023-03-29T23:57:00.224Z,151800.50
2023-03-29T23:59:30.636Z,151823.84
